sensor_id;sensor_type;location;lat;lon;timestamp;pressure;altitude;pressure_sealevel;temperature;humidity
37856;BME280;23694;43.274;26.924;2022-10-29T00:02:25;100071.25;;;11.52;81.20
37856;BME280;23694;43.274;26.924;2022-10-29T00:04:51;100071.41;;;11.49;81.63
37856;BME280;23694;43.274;26.924;2022-10-29T00:07:17;100068.53;;;11.54;81.34
37856;BME280;23694;43.274;26.924;2022-10-29T00:09:43;100065.41;;;11.47;81.36
37856;BME280;23694;43.274;26.924;2022-10-29T00:12:09;100062.63;;;11.50;81.33
37856;BME280;23694;43.274;26.924;2022-10-29T00:14:35;100064.47;;;11.48;81.40
37856;BME280;23694;43.274;26.924;2022-10-29T00:17:01;100058.31;;;11.49;81.27
37856;BME280;23694;43.274;26.924;2022-10-29T00:19:28;100057.38;;;11.50;81.24
37856;BME280;23694;43.274;26.924;2022-10-29T00:21:59;100053.22;;;11.46;81.78
37856;BME280;23694;43.274;26.924;2022-10-29T00:24:25;100051.63;;;11.43;81.53
37856;BME280;23694;43.274;26.924;2022-10-29T00:26:51;100055.25;;;11.41;81.90
37856;BME280;23694;43.274;26.924;2022-10-29T00:29:17;100052.72;;;11.39;81.75
37856;BME280;23694;43.274;26.924;2022-10-29T00:31:43;100049.41;;;11.36;81.91
37856;BME280;23694;43.274;26.924;2022-10-29T00:34:09;100046.63;;;11.39;81.41
37856;BME280;23694;43.274;26.924;2022-10-29T00:36:35;100045.84;;;11.37;81.55
37856;BME280;23694;43.274;26.924;2022-10-29T00:39:01;100041.53;;;11.36;81.89
37856;BME280;23694;43.274;26.924;2022-10-29T00:41:28;100046.19;;;11.31;81.89
37856;BME280;23694;43.274;26.924;2022-10-29T00:46:46;100047.44;;;11.24;82.35
37856;BME280;23694;43.274;26.924;2022-10-29T00:49:13;100042.72;;;11.30;81.80
37856;BME280;23694;43.274;26.924;2022-10-29T00:51:40;100045.16;;;11.33;81.80
37856;BME280;23694;43.274;26.924;2022-10-29T00:54:09;100041.19;;;11.26;82.25
37856;BME280;23694;43.274;26.924;2022-10-29T00:56:42;100040.34;;;11.26;82.01
37856;BME280;23694;43.274;26.924;2022-10-29T00:59:14;100041.09;;;11.28;81.94
37856;BME280;23694;43.274;26.924;2022-10-29T01:01:42;100032.63;;;11.23;81.50
37856;BME280;23694;43.274;26.924;2022-10-29T01:04:09;100032.03;;;11.18;81.93
37856;BME280;23694;43.274;26.924;2022-10-29T01:06:36;100029.94;;;11.24;81.82
37856;BME280;23694;43.274;26.924;2022-10-29T01:09:02;100023.16;;;11.20;82.02
37856;BME280;23694;43.274;26.924;2022-10-29T01:14:37;100018.09;;;11.17;82.09
37856;BME280;23694;43.274;26.924;2022-10-29T01:17:26;100017.06;;;11.20;81.37
37856;BME280;23694;43.274;26.924;2022-10-29T01:23:09;100016.81;;;11.24;81.38
37856;BME280;23694;43.274;26.924;2022-10-29T01:31:37;100012.91;;;11.16;82.01
37856;BME280;23694;43.274;26.924;2022-10-29T01:34:26;100007.69;;;11.16;82.31
37856;BME280;23694;43.274;26.924;2022-10-29T01:37:04;100012.00;;;11.17;81.76
37856;BME280;23694;43.274;26.924;2022-10-29T01:39:51;100010.81;;;11.22;81.15
37856;BME280;23694;43.274;26.924;2022-10-29T01:42:37;100012.06;;;11.15;81.20
37856;BME280;23694;43.274;26.924;2022-10-29T01:47:44;100004.38;;;11.12;81.20
37856;BME280;23694;43.274;26.924;2022-10-29T01:50:14;99996.13;;;11.02;81.74
37856;BME280;23694;43.274;26.924;2022-10-29T01:52:43;99999.16;;;10.95;82.42
37856;BME280;23694;43.274;26.924;2022-10-29T01:55:16;99996.94;;;10.87;82.67
37856;BME280;23694;43.274;26.924;2022-10-29T01:57:43;99998.38;;;10.93;82.07
37856;BME280;23694;43.274;26.924;2022-10-29T02:00:13;99996.25;;;10.84;82.84
37856;BME280;23694;43.274;26.924;2022-10-29T02:03:09;99986.38;;;10.89;82.36
37856;BME280;23694;43.274;26.924;2022-10-29T02:06:10;99981.22;;;10.87;82.62
37856;BME280;23694;43.274;26.924;2022-10-29T02:09:04;99987.31;;;10.88;81.93
37856;BME280;23694;43.274;26.924;2022-10-29T02:14:16;99981.06;;;10.90;81.92
37856;BME280;23694;43.274;26.924;2022-10-29T02:16:45;99987.47;;;10.85;82.27
37856;BME280;23694;43.274;26.924;2022-10-29T02:19:11;99986.22;;;10.92;82.05
37856;BME280;23694;43.274;26.924;2022-10-29T02:21:38;99978.69;;;10.86;82.09
37856;BME280;23694;43.274;26.924;2022-10-29T02:24:05;99986.97;;;10.94;81.82
37856;BME280;23694;43.274;26.924;2022-10-29T02:26:31;99984.09;;;10.98;81.22
37856;BME280;23694;43.274;26.924;2022-10-29T02:28:57;99980.03;;;10.93;81.52
37856;BME280;23694;43.274;26.924;2022-10-29T02:31:23;99979.44;;;10.88;81.86
37856;BME280;23694;43.274;26.924;2022-10-29T02:33:50;99980.97;;;10.92;81.61
37856;BME280;23694;43.274;26.924;2022-10-29T02:36:16;99985.28;;;10.93;82.08
37856;BME280;23694;43.274;26.924;2022-10-29T02:38:42;99978.59;;;10.87;82.05
37856;BME280;23694;43.274;26.924;2022-10-29T02:41:08;99987.75;;;10.96;81.08
37856;BME280;23694;43.274;26.924;2022-10-29T02:43:34;99986.41;;;11.04;81.08
37856;BME280;23694;43.274;26.924;2022-10-29T02:46:17;99986.78;;;11.14;80.21
37856;BME280;23694;43.274;26.924;2022-10-29T02:48:44;99988.03;;;11.07;80.77
37856;BME280;23694;43.274;26.924;2022-10-29T02:51:10;99985.56;;;11.04;80.60
37856;BME280;23694;43.274;26.924;2022-10-29T02:53:37;99985.00;;;11.15;79.96
37856;BME280;23694;43.274;26.924;2022-10-29T02:56:04;99980.19;;;11.23;79.74
37856;BME280;23694;43.274;26.924;2022-10-29T02:58:30;99982.81;;;11.23;81.40
37856;BME280;23694;43.274;26.924;2022-10-29T03:00:56;99976.31;;;11.30;81.64
37856;BME280;23694;43.274;26.924;2022-10-29T03:03:23;99972.06;;;11.27;81.85
37856;BME280;23694;43.274;26.924;2022-10-29T03:05:50;99970.56;;;11.23;82.64
37856;BME280;23694;43.274;26.924;2022-10-29T03:08:16;99971.91;;;11.30;82.61
37856;BME280;23694;43.274;26.924;2022-10-29T03:10:42;99971.06;;;11.14;83.15
37856;BME280;23694;43.274;26.924;2022-10-29T03:13:09;99971.75;;;11.00;81.69
37856;BME280;23694;43.274;26.924;2022-10-29T03:15:35;99968.97;;;10.88;81.51
37856;BME280;23694;43.274;26.924;2022-10-29T03:18:04;99966.09;;;10.92;80.90
37856;BME280;23694;43.274;26.924;2022-10-29T03:20:30;99972.59;;;10.85;81.43
37856;BME280;23694;43.274;26.924;2022-10-29T03:22:56;99963.94;;;10.67;82.66
37856;BME280;23694;43.274;26.924;2022-10-29T03:25:22;99964.84;;;10.66;84.08
37856;BME280;23694;43.274;26.924;2022-10-29T03:27:48;99961.66;;;10.77;83.96
37856;BME280;23694;43.274;26.924;2022-10-29T03:30:16;99956.00;;;10.69;84.67
37856;BME280;23694;43.274;26.924;2022-10-29T03:32:43;99959.13;;;10.42;86.23
37856;BME280;23694;43.274;26.924;2022-10-29T03:35:11;99953.56;;;10.48;87.28
37856;BME280;23694;43.274;26.924;2022-10-29T03:37:38;99954.38;;;10.66;87.15
37856;BME280;23694;43.274;26.924;2022-10-29T03:40:05;99948.69;;;10.58;87.57
37856;BME280;23694;43.274;26.924;2022-10-29T03:42:32;99957.25;;;10.62;87.85
37856;BME280;23694;43.274;26.924;2022-10-29T03:45:01;99970.13;;;10.49;88.05
37856;BME280;23694;43.274;26.924;2022-10-29T03:47:28;99953.16;;;10.39;88.06
37856;BME280;23694;43.274;26.924;2022-10-29T03:49:54;99957.19;;;10.29;88.81
37856;BME280;23694;43.274;26.924;2022-10-29T03:52:21;99947.16;;;10.20;89.76
37856;BME280;23694;43.274;26.924;2022-10-29T03:54:47;99947.31;;;10.16;90.22
37856;BME280;23694;43.274;26.924;2022-10-29T03:57:13;99946.53;;;10.14;90.39
37856;BME280;23694;43.274;26.924;2022-10-29T03:59:39;99949.69;;;10.04;90.80
37856;BME280;23694;43.274;26.924;2022-10-29T04:02:05;99946.53;;;9.97;91.43
37856;BME280;23694;43.274;26.924;2022-10-29T04:04:31;99953.53;;;9.97;92.16
37856;BME280;23694;43.274;26.924;2022-10-29T04:06:58;99949.69;;;10.04;92.20
37856;BME280;23694;43.274;26.924;2022-10-29T04:09:24;99948.91;;;10.02;92.93
37856;BME280;23694;43.274;26.924;2022-10-29T04:11:50;99947.63;;;10.10;92.84
37856;BME280;23694;43.274;26.924;2022-10-29T04:14:16;99947.31;;;10.16;92.61
37856;BME280;23694;43.274;26.924;2022-10-29T04:16:42;99948.91;;;10.19;92.33
37856;BME280;23694;43.274;26.924;2022-10-29T04:19:08;99948.03;;;10.20;92.35
37856;BME280;23694;43.274;26.924;2022-10-29T04:21:34;99949.47;;;10.26;92.01
37856;BME280;23694;43.274;26.924;2022-10-29T04:24:00;99965.97;;;10.28;92.74
37856;BME280;23694;43.274;26.924;2022-10-29T04:26:26;99957.25;;;10.27;93.00
37856;BME280;23694;43.274;26.924;2022-10-29T04:28:52;99962.94;;;10.18;93.36
37856;BME280;23694;43.274;26.924;2022-10-29T04:31:18;99957.94;;;10.13;93.76
37856;BME280;23694;43.274;26.924;2022-10-29T04:33:44;99969.09;;;10.17;93.83
37856;BME280;23694;43.274;26.924;2022-10-29T04:36:11;99961.53;;;10.11;94.03
37856;BME280;23694;43.274;26.924;2022-10-29T04:38:37;99962.78;;;10.04;94.10
37856;BME280;23694;43.274;26.924;2022-10-29T04:41:04;99957.38;;;10.07;94.19
37856;BME280;23694;43.274;26.924;2022-10-29T04:43:30;99959.25;;;10.05;93.79
37856;BME280;23694;43.274;26.924;2022-10-29T04:45:57;99957.31;;;10.08;94.38
37856;BME280;23694;43.274;26.924;2022-10-29T04:48:26;99961.22;;;10.17;94.10
37856;BME280;23694;43.274;26.924;2022-10-29T04:50:52;99961.50;;;10.30;93.80
37856;BME280;23694;43.274;26.924;2022-10-29T04:53:18;99957.78;;;10.34;93.95
37856;BME280;23694;43.274;26.924;2022-10-29T04:55:45;99960.97;;;10.40;93.75
37856;BME280;23694;43.274;26.924;2022-10-29T04:58:17;99958.56;;;10.36;92.79
37856;BME280;23694;43.274;26.924;2022-10-29T05:00:44;99965.66;;;10.34;91.56
37856;BME280;23694;43.274;26.924;2022-10-29T05:03:11;99966.72;;;10.12;91.77
37856;BME280;23694;43.274;26.924;2022-10-29T05:05:38;99968.09;;;10.02;93.29
37856;BME280;23694;43.274;26.924;2022-10-29T05:08:05;99974.00;;;9.89;94.01
37856;BME280;23694;43.274;26.924;2022-10-29T05:10:33;99974.31;;;9.82;94.69
37856;BME280;23694;43.274;26.924;2022-10-29T05:13:05;99978.16;;;9.75;95.34
37856;BME280;23694;43.274;26.924;2022-10-29T05:15:34;99975.09;;;9.84;96.16
37856;BME280;23694;43.274;26.924;2022-10-29T05:18:01;99969.09;;;10.00;96.06
37856;BME280;23694;43.274;26.924;2022-10-29T05:20:28;99979.94;;;10.09;95.71
37856;BME280;23694;43.274;26.924;2022-10-29T05:23:02;99977.09;;;10.14;94.50
37856;BME280;23694;43.274;26.924;2022-10-29T05:25:29;99979.66;;;10.33;93.55
37856;BME280;23694;43.274;26.924;2022-10-29T05:30:30;99983.75;;;10.38;93.13
37856;BME280;23694;43.274;26.924;2022-10-29T05:32:56;99980.38;;;10.54;92.27
37856;BME280;23694;43.274;26.924;2022-10-29T05:35:22;99979.19;;;10.59;91.66
37856;BME280;23694;43.274;26.924;2022-10-29T05:37:55;99984.19;;;10.64;91.35
37856;BME280;23694;43.274;26.924;2022-10-29T05:40:22;99980.66;;;10.65;90.72
37856;BME280;23694;43.274;26.924;2022-10-29T05:42:49;99984.66;;;10.72;90.10
37856;BME280;23694;43.274;26.924;2022-10-29T05:45:16;99986.25;;;10.74;89.69
37856;BME280;23694;43.274;26.924;2022-10-29T05:47:42;99987.75;;;10.63;89.17
37856;BME280;23694;43.274;26.924;2022-10-29T05:50:09;99990.75;;;10.55;88.83
37856;BME280;23694;43.274;26.924;2022-10-29T05:52:35;99985.84;;;10.49;89.23
37856;BME280;23694;43.274;26.924;2022-10-29T05:55:01;99989.63;;;10.43;88.62
37856;BME280;23694;43.274;26.924;2022-10-29T05:57:28;99984.03;;;10.15;90.17
37856;BME280;23694;43.274;26.924;2022-10-29T05:59:54;99992.03;;;9.95;91.93
37856;BME280;23694;43.274;26.924;2022-10-29T06:02:20;100001.19;;;9.86;94.00
37856;BME280;23694;43.274;26.924;2022-10-29T06:04:46;99999.34;;;9.88;94.65
37856;BME280;23694;43.274;26.924;2022-10-29T06:07:12;100008.25;;;9.84;94.44
37856;BME280;23694;43.274;26.924;2022-10-29T06:09:38;100005.72;;;9.82;94.87
37856;BME280;23694;43.274;26.924;2022-10-29T06:12:04;100005.78;;;9.62;96.02
37856;BME280;23694;43.274;26.924;2022-10-29T06:14:31;100013.19;;;9.71;97.41
37856;BME280;23694;43.274;26.924;2022-10-29T06:16:57;100006.00;;;9.76;96.00
37856;BME280;23694;43.274;26.924;2022-10-29T06:19:23;100013.34;;;9.68;96.14
37856;BME280;23694;43.274;26.924;2022-10-29T06:21:49;100018.88;;;9.62;97.20
37856;BME280;23694;43.274;26.924;2022-10-29T06:24:15;100020.16;;;9.53;97.59
37856;BME280;23694;43.274;26.924;2022-10-29T06:26:41;100012.34;;;9.71;98.29
37856;BME280;23694;43.274;26.924;2022-10-29T06:29:07;100013.34;;;9.68;98.31
37856;BME280;23694;43.274;26.924;2022-10-29T06:31:33;100019.88;;;9.78;96.54
37856;BME280;23694;43.274;26.924;2022-10-29T06:33:59;100001.47;;;9.80;96.46
37856;BME280;23694;43.274;26.924;2022-10-29T06:36:25;100013.34;;;9.87;94.31
37856;BME280;23694;43.274;26.924;2022-10-29T06:38:51;100005.78;;;9.81;95.77
37856;BME280;23694;43.274;26.924;2022-10-29T06:41:17;100013.25;;;9.89;95.73
37856;BME280;23694;43.274;26.924;2022-10-29T06:43:43;100017.19;;;9.97;94.76
37856;BME280;23694;43.274;26.924;2022-10-29T06:46:09;100020.66;;;9.98;95.59
37856;BME280;23694;43.274;26.924;2022-10-29T06:48:35;100021.59;;;9.97;96.24
37856;BME280;23694;43.274;26.924;2022-10-29T06:51:01;100023.06;;;10.02;95.79
37856;BME280;23694;43.274;26.924;2022-10-29T06:53:27;100022.38;;;10.16;93.64
37856;BME280;23694;43.274;26.924;2022-10-29T06:55:53;100017.09;;;10.35;93.86
37856;BME280;23694;43.274;26.924;2022-10-29T06:58:20;100026.34;;;10.59;92.51
37856;BME280;23694;43.274;26.924;2022-10-29T07:00:47;100028.94;;;10.76;89.91
37856;BME280;23694;43.274;26.924;2022-10-29T07:03:14;100020.03;;;10.63;90.71
37856;BME280;23694;43.274;26.924;2022-10-29T07:05:41;100027.72;;;10.84;90.19
37856;BME280;23694;43.274;26.924;2022-10-29T07:08:07;100031.19;;;10.67;91.00
37856;BME280;23694;43.274;26.924;2022-10-29T07:10:34;100032.84;;;10.52;90.11
37856;BME280;23694;43.274;26.924;2022-10-29T07:13:00;100033.00;;;10.49;90.85
37856;BME280;23694;43.274;26.924;2022-10-29T07:15:27;100034.53;;;10.53;91.70
37856;BME280;23694;43.274;26.924;2022-10-29T07:20:23;100041.03;;;10.27;92.62
37856;BME280;23694;43.274;26.924;2022-10-29T07:22:50;100041.50;;;10.35;92.68
37856;BME280;23694;43.274;26.924;2022-10-29T07:25:16;100035.38;;;10.54;92.83
37856;BME280;23694;43.274;26.924;2022-10-29T07:27:42;100035.31;;;10.88;93.03
37856;BME280;23694;43.274;26.924;2022-10-29T07:30:09;100030.69;;;11.26;89.16
37856;BME280;23694;43.274;26.924;2022-10-29T07:32:35;100039.19;;;11.63;87.77
37856;BME280;23694;43.274;26.924;2022-10-29T07:35:01;100036.81;;;12.05;83.87
37856;BME280;23694;43.274;26.924;2022-10-29T07:37:27;100028.00;;;12.52;81.66
37856;BME280;23694;43.274;26.924;2022-10-29T07:39:53;100022.81;;;13.09;78.73
37856;BME280;23694;43.274;26.924;2022-10-29T07:42:19;100020.34;;;13.90;75.00
37856;BME280;23694;43.274;26.924;2022-10-29T07:44:45;100029.31;;;14.67;70.79
37856;BME280;23694;43.274;26.924;2022-10-29T07:47:11;100024.09;;;14.40;70.10
37856;BME280;23694;43.274;26.924;2022-10-29T07:49:37;100022.78;;;14.59;69.58
37856;BME280;23694;43.274;26.924;2022-10-29T07:52:03;100026.91;;;14.76;68.50
37856;BME280;23694;43.274;26.924;2022-10-29T07:54:29;100029.66;;;14.87;67.30
37856;BME280;23694;43.274;26.924;2022-10-29T07:56:55;100032.81;;;14.67;67.71
37856;BME280;23694;43.274;26.924;2022-10-29T07:59:21;100027.84;;;14.50;68.50
37856;BME280;23694;43.274;26.924;2022-10-29T08:01:48;100031.94;;;14.54;67.88
37856;BME280;23694;43.274;26.924;2022-10-29T08:04:14;100030.16;;;14.27;69.47
37856;BME280;23694;43.274;26.924;2022-10-29T08:06:40;100021.97;;;14.05;70.48
37856;BME280;23694;43.274;26.924;2022-10-29T08:09:06;100024.56;;;14.19;70.25
37856;BME280;23694;43.274;26.924;2022-10-29T08:11:33;100030.03;;;14.16;70.28
37856;BME280;23694;43.274;26.924;2022-10-29T08:13:59;100025.03;;;14.39;68.96
37856;BME280;23694;43.274;26.924;2022-10-29T08:16:25;100020.97;;;14.20;69.97
37856;BME280;23694;43.274;26.924;2022-10-29T08:18:51;100016.53;;;14.21;70.07
37856;BME280;23694;43.274;26.924;2022-10-29T08:21:17;100009.72;;;13.91;72.19
37856;BME280;23694;43.274;26.924;2022-10-29T08:23:43;100006.03;;;13.94;72.05
37856;BME280;23694;43.274;26.924;2022-10-29T08:26:09;100005.09;;;13.54;73.73
37856;BME280;23694;43.274;26.924;2022-10-29T08:28:36;100002.22;;;13.16;75.43
37856;BME280;23694;43.274;26.924;2022-10-29T08:31:02;99999.00;;;12.96;77.15
37856;BME280;23694;43.274;26.924;2022-10-29T08:33:28;100001.66;;;12.82;78.02
37856;BME280;23694;43.274;26.924;2022-10-29T08:35:54;99993.66;;;12.98;77.53
37856;BME280;23694;43.274;26.924;2022-10-29T08:38:21;99992.94;;;13.10;77.47
37856;BME280;23694;43.274;26.924;2022-10-29T08:41:28;99992.72;;;13.42;76.51
37856;BME280;23694;43.274;26.924;2022-10-29T08:44:38;99998.16;;;13.53;75.20
37856;BME280;23694;43.274;26.924;2022-10-29T08:47:14;99988.59;;;13.79;74.36
37856;BME280;23694;43.274;26.924;2022-10-29T08:50:10;99988.47;;;13.68;75.54
37856;BME280;23694;43.274;26.924;2022-10-29T08:52:41;99984.31;;;13.63;74.67
37856;BME280;23694;43.274;26.924;2022-10-29T08:55:18;99988.78;;;13.35;76.92
37856;BME280;23694;43.274;26.924;2022-10-29T09:00:38;99980.81;;;13.36;76.26
37856;BME280;23694;43.274;26.924;2022-10-29T09:03:11;99977.81;;;13.28;77.21
37856;BME280;23694;43.274;26.924;2022-10-29T09:05:52;99978.78;;;13.54;76.44
37856;BME280;23694;43.274;26.924;2022-10-29T09:16:11;99972.44;;;14.37;72.25
37856;BME280;23694;43.274;26.924;2022-10-29T09:19:11;99964.22;;;14.02;74.00
37856;BME280;23694;43.274;26.924;2022-10-29T09:21:55;99969.44;;;14.29;74.22
37856;BME280;23694;43.274;26.924;2022-10-29T09:24:47;99967.94;;;14.90;71.85
37856;BME280;23694;43.274;26.924;2022-10-29T09:30:18;99959.38;;;15.12;69.64
37856;BME280;23694;43.274;26.924;2022-10-29T09:33:01;99953.44;;;15.21;69.06
37856;BME280;23694;43.274;26.924;2022-10-29T09:38:17;99951.13;;;15.16;69.38
37856;BME280;23694;43.274;26.924;2022-10-29T09:40:44;99935.28;;;15.66;67.68
37856;BME280;23694;43.274;26.924;2022-10-29T09:49:01;99927.88;;;16.17;64.40
37856;BME280;23694;43.274;26.924;2022-10-29T09:54:08;99922.44;;;16.54;63.24
37856;BME280;23694;43.274;26.924;2022-10-29T09:56:37;99917.78;;;16.68;62.38
37856;BME280;23694;43.274;26.924;2022-10-29T09:59:34;99907.00;;;16.94;61.17
37856;BME280;23694;43.274;26.924;2022-10-29T10:02:21;99914.44;;;16.66;61.82
37856;BME280;23694;43.274;26.924;2022-10-29T10:04:50;99904.44;;;16.70;61.17
37856;BME280;23694;43.274;26.924;2022-10-29T10:07:19;99895.66;;;16.69;61.61
37856;BME280;23694;43.274;26.924;2022-10-29T10:09:51;99907.53;;;16.64;61.46
37856;BME280;23694;43.274;26.924;2022-10-29T10:12:18;99900.97;;;16.92;60.74
37856;BME280;23694;43.274;26.924;2022-10-29T10:14:45;99891.47;;;17.00;59.63
37856;BME280;23694;43.274;26.924;2022-10-29T10:17:12;99883.56;;;17.32;58.13
37856;BME280;23694;43.274;26.924;2022-10-29T10:19:44;99891.44;;;17.55;56.09
37856;BME280;23694;43.274;26.924;2022-10-29T10:22:20;99883.88;;;17.07;57.86
37856;BME280;23694;43.274;26.924;2022-10-29T10:24:47;99887.19;;;17.31;56.66
37856;BME280;23694;43.274;26.924;2022-10-29T10:29:42;99875.78;;;17.63;54.29
37856;BME280;23694;43.274;26.924;2022-10-29T10:32:13;99872.19;;;17.53;52.86
37856;BME280;23694;43.274;26.924;2022-10-29T10:34:41;99873.09;;;17.74;52.66
37856;BME280;23694;43.274;26.924;2022-10-29T10:39:38;99849.91;;;17.66;51.53
37856;BME280;23694;43.274;26.924;2022-10-29T10:42:29;99849.41;;;17.93;51.50
37856;BME280;23694;43.274;26.924;2022-10-29T10:45:01;99845.97;;;17.82;51.21
37856;BME280;23694;43.274;26.924;2022-10-29T10:47:32;99851.84;;;18.06;51.27
37856;BME280;23694;43.274;26.924;2022-10-29T10:50:10;99855.00;;;18.42;49.70
37856;BME280;23694;43.274;26.924;2022-10-29T10:52:38;99839.78;;;18.44;49.15
37856;BME280;23694;43.274;26.924;2022-10-29T10:55:16;99840.41;;;18.57;48.39
37856;BME280;23694;43.274;26.924;2022-10-29T10:57:51;99841.69;;;18.93;47.25
37856;BME280;23694;43.274;26.924;2022-10-29T11:00:21;99822.41;;;19.00;46.71
37856;BME280;23694;43.274;26.924;2022-10-29T11:03:16;99824.97;;;19.31;46.10
37856;BME280;23694;43.274;26.924;2022-10-29T11:06:02;99825.84;;;19.51;45.31
37856;BME280;23694;43.274;26.924;2022-10-29T11:08:44;99818.84;;;19.69;44.71
37856;BME280;23694;43.274;26.924;2022-10-29T11:11:22;99820.22;;;19.44;44.54
37856;BME280;23694;43.274;26.924;2022-10-29T11:13:50;99810.69;;;19.03;45.70
37856;BME280;23694;43.274;26.924;2022-10-29T11:19:15;99805.22;;;19.05;46.73
37856;BME280;23694;43.274;26.924;2022-10-29T11:22:11;99812.56;;;18.82;46.27
37856;BME280;23694;43.274;26.924;2022-10-29T11:25:05;99809.63;;;18.85;46.24
37856;BME280;23694;43.274;26.924;2022-10-29T11:27:58;99802.94;;;18.50;46.47
37856;BME280;23694;43.274;26.924;2022-10-29T11:30:32;99796.09;;;18.48;46.79
37856;BME280;23694;43.274;26.924;2022-10-29T11:33:21;99790.13;;;18.86;46.52
37856;BME280;23694;43.274;26.924;2022-10-29T11:36:16;99775.91;;;19.25;45.08
37856;BME280;23694;43.274;26.924;2022-10-29T11:38:44;99781.94;;;19.56;44.30
37856;BME280;23694;43.274;26.924;2022-10-29T11:43:58;99774.63;;;19.20;44.33
37856;BME280;23694;43.274;26.924;2022-10-29T11:49:24;99778.13;;;19.78;43.24
37856;BME280;23694;43.274;26.924;2022-10-29T11:52:29;99766.09;;;19.84;42.31
37856;BME280;23694;43.274;26.924;2022-10-29T11:57:46;99761.06;;;19.71;42.33
37856;BME280;23694;43.274;26.924;2022-10-29T12:00:20;99761.34;;;19.78;42.19
37856;BME280;23694;43.274;26.924;2022-10-29T12:02:56;99759.38;;;19.80;42.34
37856;BME280;23694;43.274;26.924;2022-10-29T12:05:45;99753.94;;;19.43;42.82
37856;BME280;23694;43.274;26.924;2022-10-29T12:14:37;99744.72;;;20.13;40.90
37856;BME280;23694;43.274;26.924;2022-10-29T12:17:58;99742.28;;;20.29;40.75
37856;BME280;23694;43.274;26.924;2022-10-29T12:23:00;99729.22;;;19.99;40.73
37856;BME280;23694;43.274;26.924;2022-10-29T12:33:26;99721.19;;;20.18;40.40
37856;BME280;23694;43.274;26.924;2022-10-29T12:36:04;99725.88;;;19.97;40.78
37856;BME280;23694;43.274;26.924;2022-10-29T12:38:38;99712.78;;;19.85;41.41
37856;BME280;23694;43.274;26.924;2022-10-29T12:41:18;99717.16;;;20.04;40.89
37856;BME280;23694;43.274;26.924;2022-10-29T12:43:45;99705.50;;;20.24;40.37
37856;BME280;23694;43.274;26.924;2022-10-29T12:46:36;99706.50;;;20.14;40.35
37856;BME280;23694;43.274;26.924;2022-10-29T12:49:49;99708.94;;;20.35;40.24
37856;BME280;23694;43.274;26.924;2022-10-29T12:51:57;99698.53;;;20.69;39.98
37856;BME280;23694;43.274;26.924;2022-10-29T12:54:41;99703.66;;;20.98;39.99
37856;BME280;23694;43.274;26.924;2022-10-29T12:59:42;99694.25;;;20.76;38.64
37856;BME280;23694;43.274;26.924;2022-10-29T13:12:58;99686.94;;;20.42;39.20
37856;BME280;23694;43.274;26.924;2022-10-29T13:15:42;99678.75;;;20.26;39.62
37856;BME280;23694;43.274;26.924;2022-10-29T13:20:40;99674.34;;;20.35;38.76
37856;BME280;23694;43.274;26.924;2022-10-29T13:25:57;99671.50;;;20.46;38.51
37856;BME280;23694;43.274;26.924;2022-10-29T13:30:52;99665.97;;;20.30;38.72
37856;BME280;23694;43.274;26.924;2022-10-29T13:41:22;99671.53;;;20.99;38.87
37856;BME280;23694;43.274;26.924;2022-10-29T13:49:16;99661.84;;;21.16;37.77
37856;BME280;23694;43.274;26.924;2022-10-29T14:05:01;99653.56;;;21.01;36.18
37856;BME280;23694;43.274;26.924;2022-10-29T14:07:53;99655.56;;;20.99;36.86
37856;BME280;23694;43.274;26.924;2022-10-29T14:10:29;99649.72;;;20.96;36.92
37856;BME280;23694;43.274;26.924;2022-10-29T14:15:35;99646.06;;;20.97;37.42
37856;BME280;23694;43.274;26.924;2022-10-29T14:18:25;99642.19;;;20.91;36.80
37856;BME280;23694;43.274;26.924;2022-10-29T14:20:56;99641.19;;;20.92;36.63
37856;BME280;23694;43.274;26.924;2022-10-29T14:23:23;99640.78;;;20.69;37.38
37856;BME280;23694;43.274;26.924;2022-10-29T14:25:51;99636.38;;;20.60;38.03
37856;BME280;23694;43.274;26.924;2022-10-29T14:28:25;99639.81;;;20.70;37.97
37856;BME280;23694;43.274;26.924;2022-10-29T14:33:35;99643.31;;;20.53;38.44
37856;BME280;23694;43.274;26.924;2022-10-29T14:38:59;99642.13;;;20.38;39.75
37856;BME280;23694;43.274;26.924;2022-10-29T14:41:29;99638.69;;;20.27;40.30
37856;BME280;23694;43.274;26.924;2022-10-29T14:44:10;99643.50;;;20.14;41.05
37856;BME280;23694;43.274;26.924;2022-10-29T14:46:40;99644.25;;;20.07;41.63
37856;BME280;23694;43.274;26.924;2022-10-29T14:49:12;99647.78;;;19.98;41.38
37856;BME280;23694;43.274;26.924;2022-10-29T14:52:24;99650.66;;;19.86;41.71
37856;BME280;23694;43.274;26.924;2022-10-29T14:54:35;99647.78;;;19.70;42.34
37856;BME280;23694;43.274;26.924;2022-10-29T14:57:08;99653.84;;;19.53;42.44
37856;BME280;23694;43.274;26.924;2022-10-29T14:59:36;99649.50;;;19.32;43.17
37856;BME280;23694;43.274;26.924;2022-10-29T15:02:09;99652.47;;;19.20;43.11
37856;BME280;23694;43.274;26.924;2022-10-29T15:04:46;99650.69;;;19.01;43.84
37856;BME280;23694;43.274;26.924;2022-10-29T15:10:01;99661.84;;;18.66;44.53
37856;BME280;23694;43.274;26.924;2022-10-29T15:12:36;99655.78;;;18.35;45.05
37856;BME280;23694;43.274;26.924;2022-10-29T15:15:24;99659.59;;;18.12;45.84
37856;BME280;23694;43.274;26.924;2022-10-29T15:20:28;99660.06;;;17.86;46.87
37856;BME280;23694;43.274;26.924;2022-10-29T15:22:56;99656.72;;;17.84;46.50
37856;BME280;23694;43.274;26.924;2022-10-29T15:25:37;99662.69;;;17.77;47.30
37856;BME280;23694;43.274;26.924;2022-10-29T15:28:13;99659.72;;;17.70;47.16
37856;BME280;23694;43.274;26.924;2022-10-29T15:30:42;99666.06;;;17.58;47.65
37856;BME280;23694;43.274;26.924;2022-10-29T15:33:16;99661.81;;;17.55;48.06